sensor_id;sensor_type;location;lat;lon;timestamp;P1;durP1;ratioP1;P2;durP2;ratioP2
50511;SDS011;36446;47.642;-3.018;2023-12-14T00:00:41;17.13;;;11.30;;
50511;SDS011;36446;47.642;-3.018;2023-12-14T00:03:07;18.65;;;11.63;;
50511;SDS011;36446;47.642;-3.018;2023-12-14T00:05:34;17.88;;;11.82;;
50511;SDS011;36446;47.642;-3.018;2023-12-14T00:08:01;17.48;;;10.82;;
50511;SDS011;36446;47.642;-3.018;2023-12-14T00:10:30;16.08;;;10.10;;
50511;SDS011;36446;47.642;-3.018;2023-12-14T00:12:56;13.93;;;9.50;;
50511;SDS011;36446;47.642;-3.018;2023-12-14T00:15:23;13.77;;;8.93;;
50511;SDS011;36446;47.642;-3.018;2023-12-14T00:17:50;13.30;;;8.55;;
50511;SDS011;36446;47.642;-3.018;2023-12-14T00:20:16;12.02;;;7.57;;
50511;SDS011;36446;47.642;-3.018;2023-12-14T00:22:43;11.95;;;7.70;;
50511;SDS011;36446;47.642;-3.018;2023-12-14T00:25:10;10.35;;;7.28;;
50511;SDS011;36446;47.642;-3.018;2023-12-14T00:27:38;10.52;;;7.03;;
50511;SDS011;36446;47.642;-3.018;2023-12-14T00:30:05;10.87;;;7.13;;
50511;SDS011;36446;47.642;-3.018;2023-12-14T00:32:33;10.27;;;6.63;;
50511;SDS011;36446;47.642;-3.018;2023-12-14T00:35:00;9.73;;;6.43;;
50511;SDS011;36446;47.642;-3.018;2023-12-14T00:37:27;10.57;;;6.40;;
50511;SDS011;36446;47.642;-3.018;2023-12-14T00:39:54;10.35;;;6.35;;
50511;SDS011;36446;47.642;-3.018;2023-12-14T00:42:21;10.50;;;6.75;;
50511;SDS011;36446;47.642;-3.018;2023-12-14T00:44:49;9.73;;;6.13;;
50511;SDS011;36446;47.642;-3.018;2023-12-14T00:47:16;9.27;;;6.00;;
50511;SDS011;36446;47.642;-3.018;2023-12-14T00:49:43;8.55;;;6.28;;
50511;SDS011;36446;47.642;-3.018;2023-12-14T00:52:10;9.73;;;5.88;;
50511;SDS011;36446;47.642;-3.018;2023-12-14T00:54:37;9.85;;;5.75;;
50511;SDS011;36446;47.642;-3.018;2023-12-14T00:57:04;7.85;;;5.40;;
50511;SDS011;36446;47.642;-3.018;2023-12-14T00:59:31;8.73;;;5.20;;
50511;SDS011;36446;47.642;-3.018;2023-12-14T01:01:59;7.82;;;5.10;;
50511;SDS011;36446;47.642;-3.018;2023-12-14T01:04:26;7.38;;;4.55;;
50511;SDS011;36446;47.642;-3.018;2023-12-14T01:06:53;6.53;;;4.78;;
50511;SDS011;36446;47.642;-3.018;2023-12-14T01:09:20;6.82;;;4.53;;
50511;SDS011;36446;47.642;-3.018;2023-12-14T01:11:47;7.15;;;4.38;;
50511;SDS011;36446;47.642;-3.018;2023-12-14T01:14:14;7.13;;;4.60;;
50511;SDS011;36446;47.642;-3.018;2023-12-14T01:16:40;6.57;;;4.10;;
50511;SDS011;36446;47.642;-3.018;2023-12-14T01:19:09;7.00;;;4.40;;
50511;SDS011;36446;47.642;-3.018;2023-12-14T01:21:36;7.13;;;4.28;;
50511;SDS011;36446;47.642;-3.018;2023-12-14T01:24:03;6.65;;;4.15;;
50511;SDS011;36446;47.642;-3.018;2023-12-14T01:26:30;5.88;;;3.95;;
50511;SDS011;36446;47.642;-3.018;2023-12-14T01:28:57;6.25;;;3.75;;
50511;SDS011;36446;47.642;-3.018;2023-12-14T01:31:25;7.10;;;4.35;;
50511;SDS011;36446;47.642;-3.018;2023-12-14T01:33:52;5.10;;;3.55;;
50511;SDS011;36446;47.642;-3.018;2023-12-14T01:36:23;5.90;;;3.85;;
50511;SDS011;36446;47.642;-3.018;2023-12-14T01:38:51;5.68;;;3.88;;
50511;SDS011;36446;47.642;-3.018;2023-12-14T01:41:18;5.38;;;3.58;;
50511;SDS011;36446;47.642;-3.018;2023-12-14T01:43:45;5.45;;;3.65;;
50511;SDS011;36446;47.642;-3.018;2023-12-14T01:46:12;5.75;;;3.25;;
50511;SDS011;36446;47.642;-3.018;2023-12-14T01:48:40;5.47;;;3.58;;
50511;SDS011;36446;47.642;-3.018;2023-12-14T01:51:07;5.60;;;3.40;;
50511;SDS011;36446;47.642;-3.018;2023-12-14T01:53:35;4.70;;;3.10;;
50511;SDS011;36446;47.642;-3.018;2023-12-14T01:56:02;5.27;;;3.20;;
50511;SDS011;36446;47.642;-3.018;2023-12-14T01:58:29;4.57;;;2.70;;
50511;SDS011;36446;47.642;-3.018;2023-12-14T02:00:58;4.97;;;2.70;;
50511;SDS011;36446;47.642;-3.018;2023-12-14T02:03:31;4.65;;;2.90;;
50511;SDS011;36446;47.642;-3.018;2023-12-14T02:05:57;4.68;;;2.70;;
50511;SDS011;36446;47.642;-3.018;2023-12-14T02:08:25;5.05;;;2.88;;
50511;SDS011;36446;47.642;-3.018;2023-12-14T02:10:55;4.90;;;2.87;;
50511;SDS011;36446;47.642;-3.018;2023-12-14T02:13:22;5.20;;;2.80;;
50511;SDS011;36446;47.642;-3.018;2023-12-14T02:15:51;4.68;;;2.67;;
50511;SDS011;36446;47.642;-3.018;2023-12-14T02:18:18;3.78;;;2.78;;
50511;SDS011;36446;47.642;-3.018;2023-12-14T02:20:45;4.47;;;2.70;;
50511;SDS011;36446;47.642;-3.018;2023-12-14T02:23:13;3.33;;;2.17;;
50511;SDS011;36446;47.642;-3.018;2023-12-14T02:25:40;3.72;;;2.30;;
50511;SDS011;36446;47.642;-3.018;2023-12-14T02:28:07;3.83;;;2.58;;
50511;SDS011;36446;47.642;-3.018;2023-12-14T02:30:34;4.30;;;2.53;;
50511;SDS011;36446;47.642;-3.018;2023-12-14T02:33:01;4.45;;;2.20;;
50511;SDS011;36446;47.642;-3.018;2023-12-14T02:35:28;4.10;;;2.33;;
50511;SDS011;36446;47.642;-3.018;2023-12-14T02:37:55;3.03;;;1.95;;
50511;SDS011;36446;47.642;-3.018;2023-12-14T02:40:23;3.58;;;1.90;;
50511;SDS011;36446;47.642;-3.018;2023-12-14T02:42:50;3.58;;;2.10;;
50511;SDS011;36446;47.642;-3.018;2023-12-14T02:45:17;3.47;;;2.05;;
50511;SDS011;36446;47.642;-3.018;2023-12-14T02:47:44;3.85;;;2.20;;
50511;SDS011;36446;47.642;-3.018;2023-12-14T02:50:12;3.90;;;2.20;;
50511;SDS011;36446;47.642;-3.018;2023-12-14T02:52:39;4.28;;;2.30;;
50511;SDS011;36446;47.642;-3.018;2023-12-14T02:55:06;2.88;;;2.00;;
50511;SDS011;36446;47.642;-3.018;2023-12-14T02:57:35;3.20;;;2.10;;
50511;SDS011;36446;47.642;-3.018;2023-12-14T03:00:02;3.13;;;1.95;;
50511;SDS011;36446;47.642;-3.018;2023-12-14T03:02:29;5.10;;;2.25;;
50511;SDS011;36446;47.642;-3.018;2023-12-14T03:04:56;2.80;;;1.90;;
50511;SDS011;36446;47.642;-3.018;2023-12-14T03:07:23;2.58;;;1.63;;
50511;SDS011;36446;47.642;-3.018;2023-12-14T03:09:50;2.53;;;1.80;;
50511;SDS011;36446;47.642;-3.018;2023-12-14T03:12:17;3.33;;;1.80;;
50511;SDS011;36446;47.642;-3.018;2023-12-14T03:14:45;3.15;;;1.80;;
50511;SDS011;36446;47.642;-3.018;2023-12-14T03:17:12;2.70;;;1.60;;
50511;SDS011;36446;47.642;-3.018;2023-12-14T03:19:40;2.95;;;1.75;;
50511;SDS011;36446;47.642;-3.018;2023-12-14T03:22:07;4.05;;;2.15;;
50511;SDS011;36446;47.642;-3.018;2023-12-14T03:24:34;2.05;;;1.52;;
50511;SDS011;36446;47.642;-3.018;2023-12-14T03:27:01;2.50;;;1.70;;
50511;SDS011;36446;47.642;-3.018;2023-12-14T03:29:28;2.70;;;1.70;;
50511;SDS011;36446;47.642;-3.018;2023-12-14T03:31:57;2.83;;;1.63;;
50511;SDS011;36446;47.642;-3.018;2023-12-14T03:34:24;2.38;;;1.58;;
50511;SDS011;36446;47.642;-3.018;2023-12-14T03:36:51;2.67;;;1.63;;
50511;SDS011;36446;47.642;-3.018;2023-12-14T03:39:18;2.88;;;1.70;;
50511;SDS011;36446;47.642;-3.018;2023-12-14T03:41:45;2.90;;;1.63;;
50511;SDS011;36446;47.642;-3.018;2023-12-14T03:44:12;2.75;;;1.67;;
50511;SDS011;36446;47.642;-3.018;2023-12-14T03:46:39;2.90;;;1.40;;
50511;SDS011;36446;47.642;-3.018;2023-12-14T03:49:07;2.47;;;1.43;;
50511;SDS011;36446;47.642;-3.018;2023-12-14T03:51:34;2.37;;;1.50;;
50511;SDS011;36446;47.642;-3.018;2023-12-14T03:54:01;2.00;;;1.20;;
50511;SDS011;36446;47.642;-3.018;2023-12-14T03:56:28;2.42;;;1.33;;
50511;SDS011;36446;47.642;-3.018;2023-12-14T03:58:54;2.35;;;1.48;;
50511;SDS011;36446;47.642;-3.018;2023-12-14T04:01:22;2.50;;;1.38;;
50511;SDS011;36446;47.642;-3.018;2023-12-14T04:03:49;3.20;;;1.33;;
50511;SDS011;36446;47.642;-3.018;2023-12-14T04:06:18;3.53;;;1.50;;
50511;SDS011;36446;47.642;-3.018;2023-12-14T04:08:44;2.17;;;1.37;;
50511;SDS011;36446;47.642;-3.018;2023-12-14T04:11:12;1.95;;;1.30;;
50511;SDS011;36446;47.642;-3.018;2023-12-14T04:13:38;2.25;;;1.25;;
50511;SDS011;36446;47.642;-3.018;2023-12-14T04:16:06;2.45;;;1.27;;
50511;SDS011;36446;47.642;-3.018;2023-12-14T04:18:33;2.15;;;1.30;;
50511;SDS011;36446;47.642;-3.018;2023-12-14T04:21:00;2.67;;;1.30;;
50511;SDS011;36446;47.642;-3.018;2023-12-14T04:23:29;3.00;;;1.30;;
50511;SDS011;36446;47.642;-3.018;2023-12-14T04:25:56;2.28;;;1.10;;
50511;SDS011;36446;47.642;-3.018;2023-12-14T04:28:22;1.73;;;1.05;;
50511;SDS011;36446;47.642;-3.018;2023-12-14T04:30:49;2.15;;;1.10;;
50511;SDS011;36446;47.642;-3.018;2023-12-14T04:33:16;2.33;;;1.15;;
50511;SDS011;36446;47.642;-3.018;2023-12-14T04:35:43;1.60;;;1.00;;
50511;SDS011;36446;47.642;-3.018;2023-12-14T04:38:10;2.75;;;1.35;;
50511;SDS011;36446;47.642;-3.018;2023-12-14T04:40:38;2.58;;;1.30;;
50511;SDS011;36446;47.642;-3.018;2023-12-14T04:43:05;2.97;;;1.38;;
50511;SDS011;36446;47.642;-3.018;2023-12-14T04:45:32;2.45;;;1.33;;
50511;SDS011;36446;47.642;-3.018;2023-12-14T04:47:59;2.35;;;1.23;;
50511;SDS011;36446;47.642;-3.018;2023-12-14T04:50:26;2.40;;;1.38;;
50511;SDS011;36446;47.642;-3.018;2023-12-14T04:52:53;2.25;;;1.17;;
50511;SDS011;36446;47.642;-3.018;2023-12-14T04:55:20;1.80;;;1.10;;
50511;SDS011;36446;47.642;-3.018;2023-12-14T04:57:48;2.33;;;1.30;;
50511;SDS011;36446;47.642;-3.018;2023-12-14T05:00:15;2.38;;;1.33;;
50511;SDS011;36446;47.642;-3.018;2023-12-14T05:02:45;2.10;;;1.10;;
50511;SDS011;36446;47.642;-3.018;2023-12-14T05:05:14;2.20;;;1.05;;
50511;SDS011;36446;47.642;-3.018;2023-12-14T05:07:41;1.58;;;1.10;;
50511;SDS011;36446;47.642;-3.018;2023-12-14T05:10:08;2.17;;;1.08;;
50511;SDS011;36446;47.642;-3.018;2023-12-14T05:12:35;1.52;;;1.00;;
50511;SDS011;36446;47.642;-3.018;2023-12-14T05:15:03;2.22;;;1.00;;
50511;SDS011;36446;47.642;-3.018;2023-12-14T05:17:31;1.73;;;0.90;;
50511;SDS011;36446;47.642;-3.018;2023-12-14T05:19:58;1.98;;;1.10;;
50511;SDS011;36446;47.642;-3.018;2023-12-14T05:22:25;1.52;;;0.90;;
50511;SDS011;36446;47.642;-3.018;2023-12-14T05:24:53;1.23;;;1.00;;
50511;SDS011;36446;47.642;-3.018;2023-12-14T05:27:20;1.88;;;0.98;;
50511;SDS011;36446;47.642;-3.018;2023-12-14T05:29:46;2.03;;;1.10;;
50511;SDS011;36446;47.642;-3.018;2023-12-14T05:32:15;1.55;;;0.90;;
50511;SDS011;36446;47.642;-3.018;2023-12-14T05:34:42;1.90;;;0.93;;
50511;SDS011;36446;47.642;-3.018;2023-12-14T05:37:08;2.05;;;0.93;;
50511;SDS011;36446;47.642;-3.018;2023-12-14T05:39:35;2.50;;;0.98;;
50511;SDS011;36446;47.642;-3.018;2023-12-14T05:42:02;1.60;;;0.90;;
50511;SDS011;36446;47.642;-3.018;2023-12-14T05:44:30;1.90;;;0.90;;
50511;SDS011;36446;47.642;-3.018;2023-12-14T05:46:56;1.75;;;0.95;;
50511;SDS011;36446;47.642;-3.018;2023-12-14T05:49:25;1.90;;;1.00;;
50511;SDS011;36446;47.642;-3.018;2023-12-14T05:51:52;1.60;;;0.90;;
50511;SDS011;36446;47.642;-3.018;2023-12-14T05:54:18;1.90;;;1.00;;
50511;SDS011;36446;47.642;-3.018;2023-12-14T05:56:45;2.00;;;0.90;;
50511;SDS011;36446;47.642;-3.018;2023-12-14T05:59:12;1.05;;;0.70;;
50511;SDS011;36446;47.642;-3.018;2023-12-14T06:01:39;1.23;;;0.77;;
50511;SDS011;36446;47.642;-3.018;2023-12-14T06:04:08;1.33;;;0.80;;
50511;SDS011;36446;47.642;-3.018;2023-12-14T06:06:36;2.38;;;0.95;;
50511;SDS011;36446;47.642;-3.018;2023-12-14T06:09:04;1.83;;;1.00;;
50511;SDS011;36446;47.642;-3.018;2023-12-14T06:11:32;1.15;;;0.80;;
50511;SDS011;36446;47.642;-3.018;2023-12-14T06:13:59;1.77;;;0.88;;
50511;SDS011;36446;47.642;-3.018;2023-12-14T06:16:26;1.38;;;0.90;;
50511;SDS011;36446;47.642;-3.018;2023-12-14T06:18:53;1.13;;;0.80;;
50511;SDS011;36446;47.642;-3.018;2023-12-14T06:21:20;1.48;;;0.80;;
50511;SDS011;36446;47.642;-3.018;2023-12-14T06:23:48;1.67;;;0.80;;
50511;SDS011;36446;47.642;-3.018;2023-12-14T06:26:15;2.55;;;0.77;;
50511;SDS011;36446;47.642;-3.018;2023-12-14T06:28:42;1.27;;;0.80;;
50511;SDS011;36446;47.642;-3.018;2023-12-14T06:31:11;2.03;;;0.80;;
50511;SDS011;36446;47.642;-3.018;2023-12-14T06:33:39;2.38;;;0.75;;
50511;SDS011;36446;47.642;-3.018;2023-12-14T06:36:07;1.33;;;0.60;;
50511;SDS011;36446;47.642;-3.018;2023-12-14T06:38:37;1.80;;;0.68;;
50511;SDS011;36446;47.642;-3.018;2023-12-14T06:41:06;1.20;;;0.77;;
50511;SDS011;36446;47.642;-3.018;2023-12-14T06:43:33;1.48;;;0.82;;
50511;SDS011;36446;47.642;-3.018;2023-12-14T06:46:01;1.65;;;0.93;;
50511;SDS011;36446;47.642;-3.018;2023-12-14T06:48:27;2.15;;;0.85;;
50511;SDS011;36446;47.642;-3.018;2023-12-14T06:50:55;3.97;;;1.00;;
50511;SDS011;36446;47.642;-3.018;2023-12-14T06:53:22;1.88;;;0.90;;
50511;SDS011;36446;47.642;-3.018;2023-12-14T06:55:48;4.10;;;1.00;;
50511;SDS011;36446;47.642;-3.018;2023-12-14T06:58:17;4.13;;;1.10;;
50511;SDS011;36446;47.642;-3.018;2023-12-14T07:00:44;2.83;;;0.90;;
50511;SDS011;36446;47.642;-3.018;2023-12-14T07:03:11;2.65;;;0.90;;
50511;SDS011;36446;47.642;-3.018;2023-12-14T07:05:38;3.72;;;1.10;;
50511;SDS011;36446;47.642;-3.018;2023-12-14T07:08:05;3.37;;;1.23;;
50511;SDS011;36446;47.642;-3.018;2023-12-14T07:10:32;3.92;;;1.20;;
50511;SDS011;36446;47.642;-3.018;2023-12-14T07:12:59;3.55;;;1.30;;
50511;SDS011;36446;47.642;-3.018;2023-12-14T07:15:27;3.58;;;1.40;;
50511;SDS011;36446;47.642;-3.018;2023-12-14T07:17:54;8.18;;;4.93;;
50511;SDS011;36446;47.642;-3.018;2023-12-14T07:20:21;12.82;;;5.35;;
50511;SDS011;36446;47.642;-3.018;2023-12-14T07:22:48;7.95;;;4.78;;
50511;SDS011;36446;47.642;-3.018;2023-12-14T07:25:15;7.23;;;4.10;;
50511;SDS011;36446;47.642;-3.018;2023-12-14T07:27:41;6.47;;;3.97;;
50511;SDS011;36446;47.642;-3.018;2023-12-14T07:30:09;5.07;;;3.60;;
50511;SDS011;36446;47.642;-3.018;2023-12-14T07:32:38;4.68;;;3.53;;
50511;SDS011;36446;47.642;-3.018;2023-12-14T07:35:05;7.07;;;3.80;;
50511;SDS011;36446;47.642;-3.018;2023-12-14T07:37:33;5.90;;;4.03;;
50511;SDS011;36446;47.642;-3.018;2023-12-14T07:40:00;7.10;;;3.97;;
50511;SDS011;36446;47.642;-3.018;2023-12-14T07:42:28;6.57;;;3.60;;
50511;SDS011;36446;47.642;-3.018;2023-12-14T07:44:55;6.18;;;3.78;;
50511;SDS011;36446;47.642;-3.018;2023-12-14T07:47:22;6.20;;;3.58;;
50511;SDS011;36446;47.642;-3.018;2023-12-14T07:49:51;5.05;;;3.60;;
50511;SDS011;36446;47.642;-3.018;2023-12-14T07:52:17;5.22;;;3.38;;
50511;SDS011;36446;47.642;-3.018;2023-12-14T07:54:44;4.57;;;3.25;;
50511;SDS011;36446;47.642;-3.018;2023-12-14T07:57:11;5.78;;;3.35;;
50511;SDS011;36446;47.642;-3.018;2023-12-14T07:59:38;5.63;;;3.33;;
50511;SDS011;36446;47.642;-3.018;2023-12-14T08:02:05;7.40;;;3.30;;
50511;SDS011;36446;47.642;-3.018;2023-12-14T08:04:32;5.13;;;2.78;;
50511;SDS011;36446;47.642;-3.018;2023-12-14T08:07:00;4.57;;;2.85;;
50511;SDS011;36446;47.642;-3.018;2023-12-14T08:09:27;5.65;;;2.70;;
50511;SDS011;36446;47.642;-3.018;2023-12-14T08:11:54;5.00;;;2.60;;
50511;SDS011;36446;47.642;-3.018;2023-12-14T08:14:21;4.38;;;2.60;;
50511;SDS011;36446;47.642;-3.018;2023-12-14T08:16:48;4.50;;;3.07;;
50511;SDS011;36446;47.642;-3.018;2023-12-14T08:19:15;4.32;;;2.72;;
50511;SDS011;36446;47.642;-3.018;2023-12-14T08:21:42;6.07;;;3.00;;
50511;SDS011;36446;47.642;-3.018;2023-12-14T08:24:10;3.95;;;2.50;;
50511;SDS011;36446;47.642;-3.018;2023-12-14T08:26:37;3.28;;;2.38;;
50511;SDS011;36446;47.642;-3.018;2023-12-14T08:29:04;4.50;;;2.50;;
50511;SDS011;36446;47.642;-3.018;2023-12-14T08:31:31;3.55;;;2.40;;
50511;SDS011;36446;47.642;-3.018;2023-12-14T08:33:58;5.57;;;2.60;;
50511;SDS011;36446;47.642;-3.018;2023-12-14T08:36:24;4.68;;;2.20;;
50511;SDS011;36446;47.642;-3.018;2023-12-14T08:38:51;3.25;;;2.17;;
50511;SDS011;36446;47.642;-3.018;2023-12-14T08:41:20;4.80;;;2.70;;
50511;SDS011;36446;47.642;-3.018;2023-12-14T08:43:47;3.63;;;2.55;;
50511;SDS011;36446;47.642;-3.018;2023-12-14T08:46:14;6.55;;;2.30;;
50511;SDS011;36446;47.642;-3.018;2023-12-14T08:48:41;3.83;;;2.17;;
50511;SDS011;36446;47.642;-3.018;2023-12-14T08:51:08;2.92;;;2.15;;
50511;SDS011;36446;47.642;-3.018;2023-12-14T08:53:35;4.10;;;2.05;;
50511;SDS011;36446;47.642;-3.018;2023-12-14T08:56:02;3.35;;;2.15;;
50511;SDS011;36446;47.642;-3.018;2023-12-14T08:58:30;3.38;;;2.15;;
50511;SDS011;36446;47.642;-3.018;2023-12-14T09:00:57;3.50;;;2.00;;
50511;SDS011;36446;47.642;-3.018;2023-12-14T09:03:24;3.38;;;2.10;;
50511;SDS011;36446;47.642;-3.018;2023-12-14T09:05:52;4.20;;;2.10;;
50511;SDS011;36446;47.642;-3.018;2023-12-14T09:08:19;5.35;;;2.00;;
50511;SDS011;36446;47.642;-3.018;2023-12-14T09:10:46;3.60;;;2.08;;
50511;SDS011;36446;47.642;-3.018;2023-12-14T09:13:13;3.78;;;2.03;;
50511;SDS011;36446;47.642;-3.018;2023-12-14T09:15:41;4.40;;;1.85;;
50511;SDS011;36446;47.642;-3.018;2023-12-14T09:18:08;2.95;;;1.80;;
50511;SDS011;36446;47.642;-3.018;2023-12-14T09:20:35;4.33;;;1.77;;
50511;SDS011;36446;47.642;-3.018;2023-12-14T09:23:02;3.00;;;1.80;;
50511;SDS011;36446;47.642;-3.018;2023-12-14T09:25:29;3.28;;;1.70;;
50511;SDS011;36446;47.642;-3.018;2023-12-14T09:27:58;3.07;;;1.67;;
50511;SDS011;36446;47.642;-3.018;2023-12-14T09:30:25;1.90;;;1.38;;
50511;SDS011;36446;47.642;-3.018;2023-12-14T09:32:53;3.10;;;1.70;;
50511;SDS011;36446;47.642;-3.018;2023-12-14T09:35:20;2.22;;;1.30;;
50511;SDS011;36446;47.642;-3.018;2023-12-14T09:37:47;2.83;;;1.63;;
50511;SDS011;36446;47.642;-3.018;2023-12-14T09:40:14;3.00;;;1.60;;
50511;SDS011;36446;47.642;-3.018;2023-12-14T09:42:41;2.00;;;1.40;;
50511;SDS011;36446;47.642;-3.018;2023-12-14T09:45:09;2.95;;;1.63;;
50511;SDS011;36446;47.642;-3.018;2023-12-14T09:47:36;2.92;;;1.50;;
50511;SDS011;36446;47.642;-3.018;2023-12-14T09:50:06;3.03;;;1.60;;
50511;SDS011;36446;47.642;-3.018;2023-12-14T09:52:34;3.97;;;1.53;;
50511;SDS011;36446;47.642;-3.018;2023-12-14T09:55:01;3.28;;;1.52;;
50511;SDS011;36446;47.642;-3.018;2023-12-14T09:57:29;2.03;;;1.50;;
50511;SDS011;36446;47.642;-3.018;2023-12-14T09:59:56;2.88;;;1.58;;
50511;SDS011;36446;47.642;-3.018;2023-12-14T10:02:24;3.08;;;1.60;;
50511;SDS011;36446;47.642;-3.018;2023-12-14T10:04:52;2.47;;;1.50;;
50511;SDS011;36446;47.642;-3.018;2023-12-14T10:07:21;2.40;;;1.50;;
50511;SDS011;36446;47.642;-3.018;2023-12-14T10:09:48;2.78;;;1.30;;
50511;SDS011;36446;47.642;-3.018;2023-12-14T10:12:15;1.85;;;1.30;;
50511;SDS011;36446;47.642;-3.018;2023-12-14T10:14:42;1.45;;;1.10;;
50511;SDS011;36446;47.642;-3.018;2023-12-14T10:17:18;2.50;;;1.27;;
50511;SDS011;36446;47.642;-3.018;2023-12-14T10:19:49;1.50;;;1.10;;
50511;SDS011;36446;47.642;-3.018;2023-12-14T10:22:17;1.83;;;1.10;;
50511;SDS011;36446;47.642;-3.018;2023-12-14T10:24:46;1.20;;;0.80;;
50511;SDS011;36446;47.642;-3.018;2023-12-14T10:27:13;1.15;;;0.90;;
50511;SDS011;36446;47.642;-3.018;2023-12-14T10:29:41;1.30;;;0.90;;
50511;SDS011;36446;47.642;-3.018;2023-12-14T10:32:10;1.88;;;1.00;;
50511;SDS011;36446;47.642;-3.018;2023-12-14T10:34:37;1.88;;;1.02;;
50511;SDS011;36446;47.642;-3.018;2023-12-14T10:37:05;1.90;;;1.40;;
50511;SDS011;36446;47.642;-3.018;2023-12-14T10:39:33;1.70;;;1.20;;
50511;SDS011;36446;47.642;-3.018;2023-12-14T10:42:03;2.45;;;1.27;;
50511;SDS011;36446;47.642;-3.018;2023-12-14T10:44:32;1.73;;;1.10;;
50511;SDS011;36446;47.642;-3.018;2023-12-14T10:47:03;1.77;;;1.13;;
50511;SDS011;36446;47.642;-3.018;2023-12-14T10:49:32;2.75;;;1.10;;
50511;SDS011;36446;47.642;-3.018;2023-12-14T10:52:00;2.28;;;1.10;;
50511;SDS011;36446;47.642;-3.018;2023-12-14T10:54:29;2.15;;;1.15;;
50511;SDS011;36446;47.642;-3.018;2023-12-14T10:57:02;2.05;;;1.10;;
50511;SDS011;36446;47.642;-3.018;2023-12-14T10:59:31;1.25;;;1.00;;
50511;SDS011;36446;47.642;-3.018;2023-12-14T11:01:58;2.17;;;0.88;;
50511;SDS011;36446;47.642;-3.018;2023-12-14T11:04:25;1.33;;;0.90;;
50511;SDS011;36446;47.642;-3.018;2023-12-14T11:06:53;1.77;;;1.10;;
50511;SDS011;36446;47.642;-3.018;2023-12-14T11:09:22;1.40;;;0.85;;
50511;SDS011;36446;47.642;-3.018;2023-12-14T11:11:54;2.08;;;1.00;;
50511;SDS011;36446;47.642;-3.018;2023-12-14T11:14:25;1.40;;;0.90;;
50511;SDS011;36446;47.642;-3.018;2023-12-14T11:16:53;2.03;;;1.10;;
50511;SDS011;36446;47.642;-3.018;2023-12-14T11:19:26;5.13;;;1.20;;
50511;SDS011;36446;47.642;-3.018;2023-12-14T11:24:37;3.58;;;1.10;;
50511;SDS011;36446;47.642;-3.018;2023-12-14T11:27:07;8.57;;;1.90;;
50511;SDS011;36446;47.642;-3.018;2023-12-14T11:29:36;7.15;;;1.50;;
50511;SDS011;36446;47.642;-3.018;2023-12-14T11:32:05;6.22;;;1.42;;
50511;SDS011;36446;47.642;-3.018;2023-12-14T11:34:32;9.10;;;1.60;;
50511;SDS011;36446;47.642;-3.018;2023-12-14T11:36:59;8.15;;;1.42;;
50511;SDS011;36446;47.642;-3.018;2023-12-14T11:39:29;5.78;;;1.55;;
50511;SDS011;36446;47.642;-3.018;2023-12-14T11:42:00;11.88;;;1.90;;
50511;SDS011;36446;47.642;-3.018;2023-12-14T11:44:28;10.90;;;1.65;;
50511;SDS011;36446;47.642;-3.018;2023-12-14T11:46:57;9.52;;;1.73;;
50511;SDS011;36446;47.642;-3.018;2023-12-14T11:49:24;7.65;;;1.30;;
50511;SDS011;36446;47.642;-3.018;2023-12-14T11:51:52;5.72;;;1.40;;
50511;SDS011;36446;47.642;-3.018;2023-12-14T11:54:19;3.13;;;1.10;;
50511;SDS011;36446;47.642;-3.018;2023-12-14T11:56:46;3.75;;;1.30;;
50511;SDS011;36446;47.642;-3.018;2023-12-14T11:59:14;4.57;;;1.37;;
50511;SDS011;36446;47.642;-3.018;2023-12-14T12:01:53;2.85;;;1.00;;
50511;SDS011;36446;47.642;-3.018;2023-12-14T12:04:22;4.95;;;1.20;;
50511;SDS011;36446;47.642;-3.018;2023-12-14T12:06:49;3.65;;;1.17;;
50511;SDS011;36446;47.642;-3.018;2023-12-14T12:09:31;3.58;;;1.10;;
50511;SDS011;36446;47.642;-3.018;2023-12-14T12:12:00;3.10;;;1.00;;
50511;SDS011;36446;47.642;-3.018;2023-12-14T12:14:27;3.97;;;1.20;;
50511;SDS011;36446;47.642;-3.018;2023-12-14T12:16:54;2.65;;;0.90;;
50511;SDS011;36446;47.642;-3.018;2023-12-14T12:19:22;9.27;;;4.53;;
50511;SDS011;36446;47.642;-3.018;2023-12-14T12:21:49;10.63;;;9.55;;
50511;SDS011;36446;47.642;-3.018;2023-12-14T12:24:16;18.98;;;17.38;;
50511;SDS011;36446;47.642;-3.018;2023-12-14T12:26:43;26.25;;;24.17;;
50511;SDS011;36446;47.642;-3.018;2023-12-14T12:29:10;27.13;;;24.88;;
50511;SDS011;36446;47.642;-3.018;2023-12-14T12:31:37;26.95;;;24.75;;
50511;SDS011;36446;47.642;-3.018;2023-12-14T12:34:05;26.17;;;23.97;;
50511;SDS011;36446;47.642;-3.018;2023-12-14T12:36:33;26.58;;;24.27;;
50511;SDS011;36446;47.642;-3.018;2023-12-14T12:39:00;25.50;;;23.25;;
50511;SDS011;36446;47.642;-3.018;2023-12-14T12:41:28;25.42;;;23.13;;
50511;SDS011;36446;47.642;-3.018;2023-12-14T12:43:55;23.35;;;21.17;;
50511;SDS011;36446;47.642;-3.018;2023-12-14T12:46:22;21.75;;;20.00;;
50511;SDS011;36446;47.642;-3.018;2023-12-14T12:48:50;19.83;;;17.93;;
50511;SDS011;36446;47.642;-3.018;2023-12-14T12:51:17;19.05;;;17.35;;
50511;SDS011;36446;47.642;-3.018;2023-12-14T12:53:45;36.83;;;32.55;;
50511;SDS011;36446;47.642;-3.018;2023-12-14T12:56:12;200.10;;;141.07;;
50511;SDS011;36446;47.642;-3.018;2023-12-14T12:58:39;173.57;;;123.55;;
50511;SDS011;36446;47.642;-3.018;2023-12-14T13:01:06;153.40;;;109.90;;
50511;SDS011;36446;47.642;-3.018;2023-12-14T13:03:33;131.07;;;92.18;;
50511;SDS011;36446;47.642;-3.018;2023-12-14T13:06:00;101.40;;;72.38;;
50511;SDS011;36446;47.642;-3.018;2023-12-14T13:08:28;103.35;;;74.10;;
50511;SDS011;36446;47.642;-3.018;2023-12-14T13:10:57;177.02;;;126.93;;
50511;SDS011;36446;47.642;-3.018;2023-12-14T13:13:25;177.10;;;126.60;;
50511;SDS011;36446;47.642;-3.018;2023-12-14T13:15:52;140.77;;;101.15;;
50511;SDS011;36446;47.642;-3.018;2023-12-14T13:18:19;176.57;;;125.23;;
50511;SDS011;36446;47.642;-3.018;2023-12-14T13:20:45;165.07;;;118.18;;
50511;SDS011;36446;47.642;-3.018;2023-12-14T13:23:12;147.45;;;104.70;;
50511;SDS011;36446;47.642;-3.018;2023-12-14T13:25:39;128.82;;;92.00;;
50511;SDS011;36446;47.642;-3.018;2023-12-14T13:28:07;124.25;;;91.00;;
50511;SDS011;36446;47.642;-3.018;2023-12-14T13:30:34;119.63;;;85.82;;
50511;SDS011;36446;47.642;-3.018;2023-12-14T13:33:01;107.77;;;78.23;;
50511;SDS011;36446;47.642;-3.018;2023-12-14T13:35:29;105.10;;;74.95;;
50511;SDS011;36446;47.642;-3.018;2023-12-14T13:37:56;98.75;;;70.45;;
50511;SDS011;36446;47.642;-3.018;2023-12-14T13:40:22;95.07;;;67.37;;
50511;SDS011;36446;47.642;-3.018;2023-12-14T13:42:49;89.55;;;63.13;;
50511;SDS011;36446;47.642;-3.018;2023-12-14T13:45:18;84.10;;;59.40;;
50511;SDS011;36446;47.642;-3.018;2023-12-14T13:47:45;81.00;;;57.60;;
50511;SDS011;36446;47.642;-3.018;2023-12-14T13:50:12;73.65;;;53.05;;
50511;SDS011;36446;47.642;-3.018;2023-12-14T13:52:39;71.30;;;49.53;;
50511;SDS011;36446;47.642;-3.018;2023-12-14T13:55:06;66.50;;;47.42;;
50511;SDS011;36446;47.642;-3.018;2023-12-14T13:57:33;61.13;;;43.88;;
50511;SDS011;36446;47.642;-3.018;2023-12-14T14:00:00;56.45;;;40.40;;
50511;SDS011;36446;47.642;-3.018;2023-12-14T14:02:28;58.10;;;40.10;;
50511;SDS011;36446;47.642;-3.018;2023-12-14T14:04:55;51.42;;;36.05;;
50511;SDS011;36446;47.642;-3.018;2023-12-14T14:07:22;51.13;;;36.80;;
50511;SDS011;36446;47.642;-3.018;2023-12-14T14:09:48;47.92;;;34.25;;
50511;SDS011;36446;47.642;-3.018;2023-12-14T14:12:15;44.25;;;32.05;;
50511;SDS011;36446;47.642;-3.018;2023-12-14T14:14:42;44.00;;;30.40;;
50511;SDS011;36446;47.642;-3.018;2023-12-14T14:17:09;37.85;;;27.33;;
50511;SDS011;36446;47.642;-3.018;2023-12-14T14:19:38;40.65;;;26.65;;
50511;SDS011;36446;47.642;-3.018;2023-12-14T14:22:05;34.85;;;25.05;;
50511;SDS011;36446;47.642;-3.018;2023-12-14T14:24:32;32.97;;;23.13;;
50511;SDS011;36446;47.642;-3.018;2023-12-14T14:26:59;30.45;;;21.38;;
50511;SDS011;36446;47.642;-3.018;2023-12-14T14:29:26;29.42;;;20.45;;
50511;SDS011;36446;47.642;-3.018;2023-12-14T14:31:53;21.42;;;13.85;;